Aviation Weather View - Albury, NSW
Albury
METAR YMAY 160600Z 25013KT 9999 SCT064 23/06 Q1012
ADVISORY INFORMATION ONLY.
Information and images sourced on a "best effort" basis from
our own station 2.7NM north of the field at 1016ft AMSL.
Weather information is NOT from the Albury Airport.

Contact Ross on 0409-578-660
Updated 0637Z (16-Jan-2021 at 17:37:06 local)
Temperature 21.5 Deg C
QNH is 1013
Humidity is 57% RH
Dewpoint is 12.6 Deg C
Estimated Cloudbase is 4700 feet amsl
Wind: 8 KT, gusting to 20 KT from 225 degrees magnetic (213 true)
Runway 07 Crosswind 3KT Right to Left 7KT downwind
Runway 25 Crosswind 3KT Left to Right
Wind last 10 minutes: Average 8 KT
Solar Insolation: 565 W/m^2

TWR: 123.25 SMC: 121.8 AWIS: 134.525 ATIS: 115.6/133.85 Map
How to interpret the wind rose
Wind Rose
Solar Radiation Decoded METAR data
Albury Airport (94896, YMAY)
WMO Index: 95896
ID Name: YMAY
Date/Time: 16-Jan-2021 0600 UTC
Lat/Lon: 36.07S 146.95E
Wind: 250 deg true at 13.0 knots
Temperature: 22.9 deg C
Dewpoint: 6.2 deg C
QNH: 1012.3
Rain since 9am: 0.0
Rain last 10 mins: 0.0
Visibility: -9999 metres
AutoVisibility: 10000 metres
Max Wind Gust last 10 mins: 20.0 knots
Scattered 1950m (6396ft)

Calculated humidity: 34.0 %RH